EPKK

John Paul II International Kraków-Balice Airport

Kraków, Poland
TAF EPKK 161730Z 1618/1718 27010KT 9999 SCT045 TEMPO 1618/1622 4000 SHRA BKN015CB PROB40 TEMPO 1622/1705 4500 BR BKN013 TEMPO 1708/1718 3000 SHRA BKN012 BKN020CB
Issued Valid From Valid To
Jul-16 @ 17:30 UTC
(3 hours ago)
Jul-16 @ 18:00 UTC
(2 hours ago)
Jul-17 @ 18:00 UTC
(in 22 hours)
Jul-16 @ 18:00 to Jul-17 @ 18:00
TAF EPKK 161730Z 1618/1718 27010KT 9999 SCT045
Wind Visibility Clouds
270° at 10 knots 10,000+ meters
  • Scattered at 4,500' AGL
Temporary Jul-16 @ 18:00 to Jul-16 @ 22:00
TEMPO 1618/1622 4000 SHRA BKN015CB
Visibility Clouds Conditions
4,007 meters
  • Broken at 1,500' AGL
  • Rain
Temporary  (Probability 40%) Jul-16 @ 22:00 to Jul-17 @ 05:00
PROB40 TEMPO 1622/1705 4500 BR BKN013
Visibility Clouds Conditions
4,506 meters
  • Broken at 1,300' AGL
  • Mist
Temporary Jul-17 @ 08:00 to Jul-17 @ 18:00
TEMPO 1708/1718 3000 SHRA BKN012 BKN020CB
Visibility Clouds Conditions
2,993 meters
  • Broken at 1,200' AGL
  • Broken at 2,000' AGL
  • Rain
TAF EPKK 161730Z 1618/1718 27010KT 9999 SCT045 TEMPO 1618/1622 4000 SHRA BKN015CB PROB40 TEMPO 1622/1705 4500 BR BKN013 TEMPO 1708/1718 3000 SHRA BKN012 BKN020CB
Issued Jul-16 @ 17:30 UTC
(3 hours ago)
Valid From Jul-16 @ 18:00 UTC
(2 hours ago)
Valid To Jul-17 @ 18:00 UTC
(in 22 hours)
Jul-16 @ 18:00 - Jul-17 @ 18:00
Wind Visibility
270° at 10 knots 10,000+ meters
Clouds
  • Scattered at 4,500' AGL
Temporary Jul-16 @ 18:00 - Jul-16 @ 22:00
Clouds
  • Broken at 1,500' AGL
Conditions
  • Rain
Probability 40% Temporary Jul-16 @ 22:00 - Jul-17 @ 05:00
Clouds
  • Broken at 1,300' AGL
Conditions
  • Mist
Temporary Jul-17 @ 08:00 - Jul-17 @ 18:00
Clouds
  • Broken at 1,200' AGL
  • Broken at 2,000' AGL
Conditions
  • Rain